sensor_id;sensor_type;location;lat;lon;timestamp;P1;durP1;ratioP1;P2;durP2;ratioP2
75935;SDS011;64614;32.062;34.834;2023-07-02T00:01:44;7.28;;;4.00;;
75935;SDS011;64614;32.062;34.834;2023-07-02T00:04:10;8.73;;;3.58;;
75935;SDS011;64614;32.062;34.834;2023-07-02T00:06:39;8.32;;;3.88;;
75935;SDS011;64614;32.062;34.834;2023-07-02T00:09:08;7.00;;;3.45;;
75935;SDS011;64614;32.062;34.834;2023-07-02T00:11:37;7.72;;;3.90;;
75935;SDS011;64614;32.062;34.834;2023-07-02T00:14:07;6.75;;;3.70;;
75935;SDS011;64614;32.062;34.834;2023-07-02T00:16:34;7.07;;;3.95;;
75935;SDS011;64614;32.062;34.834;2023-07-02T00:19:00;8.05;;;3.90;;
75935;SDS011;64614;32.062;34.834;2023-07-02T00:21:26;7.25;;;4.15;;
75935;SDS011;64614;32.062;34.834;2023-07-02T00:23:53;8.63;;;4.47;;
75935;SDS011;64614;32.062;34.834;2023-07-02T00:26:22;7.10;;;3.80;;
75935;SDS011;64614;32.062;34.834;2023-07-02T00:28:54;6.72;;;3.67;;
75935;SDS011;64614;32.062;34.834;2023-07-02T00:31:21;8.18;;;3.95;;
75935;SDS011;64614;32.062;34.834;2023-07-02T00:33:47;5.82;;;3.60;;
75935;SDS011;64614;32.062;34.834;2023-07-02T00:36:14;6.65;;;3.40;;
75935;SDS011;64614;32.062;34.834;2023-07-02T00:38:41;6.63;;;3.63;;
75935;SDS011;64614;32.062;34.834;2023-07-02T00:41:08;7.53;;;3.78;;
75935;SDS011;64614;32.062;34.834;2023-07-02T00:43:34;5.93;;;3.60;;
75935;SDS011;64614;32.062;34.834;2023-07-02T00:46:00;7.18;;;3.58;;
75935;SDS011;64614;32.062;34.834;2023-07-02T00:48:25;6.68;;;3.47;;
75935;SDS011;64614;32.062;34.834;2023-07-02T00:50:52;6.70;;;3.78;;
75935;SDS011;64614;32.062;34.834;2023-07-02T00:53:17;7.63;;;3.70;;
75935;SDS011;64614;32.062;34.834;2023-07-02T00:55:43;6.43;;;3.50;;
75935;SDS011;64614;32.062;34.834;2023-07-02T00:58:09;7.28;;;4.03;;
75935;SDS011;64614;32.062;34.834;2023-07-02T01:00:35;6.43;;;3.92;;
75935;SDS011;64614;32.062;34.834;2023-07-02T01:03:01;7.03;;;3.53;;
75935;SDS011;64614;32.062;34.834;2023-07-02T01:05:30;6.82;;;4.07;;
75935;SDS011;64614;32.062;34.834;2023-07-02T01:08:02;7.65;;;3.80;;
75935;SDS011;64614;32.062;34.834;2023-07-02T01:10:29;8.25;;;4.00;;
75935;SDS011;64614;32.062;34.834;2023-07-02T01:12:57;6.80;;;3.72;;
75935;SDS011;64614;32.062;34.834;2023-07-02T01:15:26;7.32;;;3.97;;
75935;SDS011;64614;32.062;34.834;2023-07-02T01:17:52;5.97;;;3.47;;
75935;SDS011;64614;32.062;34.834;2023-07-02T01:20:18;6.75;;;3.75;;
75935;SDS011;64614;32.062;34.834;2023-07-02T01:22:48;6.30;;;3.50;;
75935;SDS011;64614;32.062;34.834;2023-07-02T01:25:17;7.30;;;3.78;;
75935;SDS011;64614;32.062;34.834;2023-07-02T01:27:43;6.18;;;3.55;;
75935;SDS011;64614;32.062;34.834;2023-07-02T01:30:09;7.80;;;3.58;;
75935;SDS011;64614;32.062;34.834;2023-07-02T01:32:36;9.35;;;4.28;;
75935;SDS011;64614;32.062;34.834;2023-07-02T01:35:03;7.72;;;4.20;;
75935;SDS011;64614;32.062;34.834;2023-07-02T01:37:29;8.70;;;4.18;;
75935;SDS011;64614;32.062;34.834;2023-07-02T01:40:02;8.02;;;4.47;;
75935;SDS011;64614;32.062;34.834;2023-07-02T01:42:31;8.35;;;4.28;;
75935;SDS011;64614;32.062;34.834;2023-07-02T01:44:57;7.68;;;4.13;;
75935;SDS011;64614;32.062;34.834;2023-07-02T01:47:22;9.77;;;4.45;;
75935;SDS011;64614;32.062;34.834;2023-07-02T01:49:49;7.57;;;4.00;;
75935;SDS011;64614;32.062;34.834;2023-07-02T01:52:15;7.32;;;3.80;;
75935;SDS011;64614;32.062;34.834;2023-07-02T01:54:41;10.43;;;4.18;;
75935;SDS011;64614;32.062;34.834;2023-07-02T01:57:06;7.38;;;3.95;;
75935;SDS011;64614;32.062;34.834;2023-07-02T01:59:32;9.90;;;4.55;;
75935;SDS011;64614;32.062;34.834;2023-07-02T02:01:58;7.53;;;4.20;;
75935;SDS011;64614;32.062;34.834;2023-07-02T02:04:24;7.38;;;4.00;;
75935;SDS011;64614;32.062;34.834;2023-07-02T02:06:49;8.02;;;4.22;;
75935;SDS011;64614;32.062;34.834;2023-07-02T02:09:17;10.00;;;4.25;;
75935;SDS011;64614;32.062;34.834;2023-07-02T02:11:44;7.30;;;4.05;;
75935;SDS011;64614;32.062;34.834;2023-07-02T02:14:11;7.93;;;3.75;;
75935;SDS011;64614;32.062;34.834;2023-07-02T02:16:37;6.38;;;3.83;;
75935;SDS011;64614;32.062;34.834;2023-07-02T02:19:03;7.90;;;4.00;;
75935;SDS011;64614;32.062;34.834;2023-07-02T02:21:29;7.00;;;4.28;;
75935;SDS011;64614;32.062;34.834;2023-07-02T02:23:55;6.68;;;4.28;;
75935;SDS011;64614;32.062;34.834;2023-07-02T02:26:21;7.63;;;4.57;;
75935;SDS011;64614;32.062;34.834;2023-07-02T02:28:48;6.57;;;4.47;;
75935;SDS011;64614;32.062;34.834;2023-07-02T02:31:17;7.00;;;4.38;;
75935;SDS011;64614;32.062;34.834;2023-07-02T02:33:43;7.35;;;4.40;;
75935;SDS011;64614;32.062;34.834;2023-07-02T02:36:09;7.25;;;4.38;;
75935;SDS011;64614;32.062;34.834;2023-07-02T02:38:34;7.20;;;4.40;;
75935;SDS011;64614;32.062;34.834;2023-07-02T02:41:02;7.38;;;4.63;;
75935;SDS011;64614;32.062;34.834;2023-07-02T02:43:42;7.25;;;4.30;;
75935;SDS011;64614;32.062;34.834;2023-07-02T02:46:09;7.68;;;4.30;;
75935;SDS011;64614;32.062;34.834;2023-07-02T02:48:36;6.40;;;3.95;;
75935;SDS011;64614;32.062;34.834;2023-07-02T02:51:02;6.32;;;4.50;;
75935;SDS011;64614;32.062;34.834;2023-07-02T02:53:27;6.50;;;3.92;;
75935;SDS011;64614;32.062;34.834;2023-07-02T02:55:53;6.70;;;3.97;;
75935;SDS011;64614;32.062;34.834;2023-07-02T02:58:19;6.38;;;3.85;;
75935;SDS011;64614;32.062;34.834;2023-07-02T03:00:44;6.97;;;4.03;;
75935;SDS011;64614;32.062;34.834;2023-07-02T03:03:12;6.50;;;4.00;;
75935;SDS011;64614;32.062;34.834;2023-07-02T03:05:38;6.47;;;4.10;;
75935;SDS011;64614;32.062;34.834;2023-07-02T03:08:04;7.38;;;4.82;;
75935;SDS011;64614;32.062;34.834;2023-07-02T03:10:30;7.22;;;4.35;;
75935;SDS011;64614;32.062;34.834;2023-07-02T03:12:56;6.82;;;4.43;;
75935;SDS011;64614;32.062;34.834;2023-07-02T03:15:21;6.78;;;4.40;;
75935;SDS011;64614;32.062;34.834;2023-07-02T03:17:47;6.32;;;3.90;;
75935;SDS011;64614;32.062;34.834;2023-07-02T03:20:13;6.53;;;3.88;;
75935;SDS011;64614;32.062;34.834;2023-07-02T03:22:38;6.38;;;3.70;;
75935;SDS011;64614;32.062;34.834;2023-07-02T03:25:04;6.35;;;4.03;;
75935;SDS011;64614;32.062;34.834;2023-07-02T03:27:30;5.63;;;3.33;;
75935;SDS011;64614;32.062;34.834;2023-07-02T03:29:56;6.32;;;3.63;;
75935;SDS011;64614;32.062;34.834;2023-07-02T03:32:21;5.82;;;3.55;;
75935;SDS011;64614;32.062;34.834;2023-07-02T03:34:47;6.03;;;3.75;;
75935;SDS011;64614;32.062;34.834;2023-07-02T03:37:21;5.65;;;3.65;;
75935;SDS011;64614;32.062;34.834;2023-07-02T03:39:50;6.30;;;3.75;;
75935;SDS011;64614;32.062;34.834;2023-07-02T03:42:27;6.25;;;3.80;;
75935;SDS011;64614;32.062;34.834;2023-07-02T03:45:10;6.88;;;4.18;;
75935;SDS011;64614;32.062;34.834;2023-07-02T03:47:38;6.15;;;4.07;;
75935;SDS011;64614;32.062;34.834;2023-07-02T03:50:08;6.50;;;4.05;;
75935;SDS011;64614;32.062;34.834;2023-07-02T03:55:22;6.30;;;3.83;;
75935;SDS011;64614;32.062;34.834;2023-07-02T03:57:48;6.55;;;3.67;;
75935;SDS011;64614;32.062;34.834;2023-07-02T04:00:13;6.03;;;3.50;;
75935;SDS011;64614;32.062;34.834;2023-07-02T04:02:42;6.35;;;3.60;;
75935;SDS011;64614;32.062;34.834;2023-07-02T04:05:23;6.10;;;3.65;;
75935;SDS011;64614;32.062;34.834;2023-07-02T04:07:51;5.25;;;3.55;;
75935;SDS011;64614;32.062;34.834;2023-07-02T04:10:17;6.55;;;4.28;;
75935;SDS011;64614;32.062;34.834;2023-07-02T04:12:45;6.90;;;4.05;;
75935;SDS011;64614;32.062;34.834;2023-07-02T04:15:11;6.00;;;3.58;;
75935;SDS011;64614;32.062;34.834;2023-07-02T04:17:37;5.88;;;3.80;;
75935;SDS011;64614;32.062;34.834;2023-07-02T04:20:03;7.38;;;3.80;;
75935;SDS011;64614;32.062;34.834;2023-07-02T04:22:29;5.57;;;3.70;;
75935;SDS011;64614;32.062;34.834;2023-07-02T04:24:55;5.95;;;3.70;;
75935;SDS011;64614;32.062;34.834;2023-07-02T04:27:24;5.38;;;3.50;;
75935;SDS011;64614;32.062;34.834;2023-07-02T04:29:53;5.70;;;3.53;;
75935;SDS011;64614;32.062;34.834;2023-07-02T04:32:31;5.70;;;3.28;;
75935;SDS011;64614;32.062;34.834;2023-07-02T04:35:04;6.15;;;3.63;;
75935;SDS011;64614;32.062;34.834;2023-07-02T04:37:30;5.40;;;3.25;;
75935;SDS011;64614;32.062;34.834;2023-07-02T04:39:58;5.40;;;3.45;;
75935;SDS011;64614;32.062;34.834;2023-07-02T04:42:25;5.18;;;3.20;;
75935;SDS011;64614;32.062;34.834;2023-07-02T04:44:55;6.07;;;3.65;;
75935;SDS011;64614;32.062;34.834;2023-07-02T04:49:50;6.47;;;3.67;;
75935;SDS011;64614;32.062;34.834;2023-07-02T04:52:24;5.75;;;3.25;;
75935;SDS011;64614;32.062;34.834;2023-07-02T04:54:57;5.50;;;3.13;;
75935;SDS011;64614;32.062;34.834;2023-07-02T04:57:23;5.97;;;3.55;;
75935;SDS011;64614;32.062;34.834;2023-07-02T04:59:54;5.32;;;3.30;;
75935;SDS011;64614;32.062;34.834;2023-07-02T05:02:20;5.00;;;3.35;;
75935;SDS011;64614;32.062;34.834;2023-07-02T05:04:54;5.97;;;3.55;;
75935;SDS011;64614;32.062;34.834;2023-07-02T05:07:29;5.93;;;3.65;;
75935;SDS011;64614;32.062;34.834;2023-07-02T05:09:57;5.47;;;3.83;;
75935;SDS011;64614;32.062;34.834;2023-07-02T05:12:29;6.00;;;3.60;;
75935;SDS011;64614;32.062;34.834;2023-07-02T05:17:24;6.15;;;3.28;;
75935;SDS011;64614;32.062;34.834;2023-07-02T05:20:02;4.57;;;3.03;;
75935;SDS011;64614;32.062;34.834;2023-07-02T05:22:31;5.55;;;3.20;;
75935;SDS011;64614;32.062;34.834;2023-07-02T05:25:00;6.38;;;3.42;;
75935;SDS011;64614;32.062;34.834;2023-07-02T05:27:33;5.35;;;3.40;;
75935;SDS011;64614;32.062;34.834;2023-07-02T05:29:59;5.10;;;3.03;;
75935;SDS011;64614;32.062;34.834;2023-07-02T05:32:28;5.18;;;2.90;;
75935;SDS011;64614;32.062;34.834;2023-07-02T05:34:57;5.57;;;3.50;;
75935;SDS011;64614;32.062;34.834;2023-07-02T05:39:53;5.65;;;3.40;;
75935;SDS011;64614;32.062;34.834;2023-07-02T05:42:19;6.50;;;3.72;;
75935;SDS011;64614;32.062;34.834;2023-07-02T05:44:44;5.60;;;3.50;;
75935;SDS011;64614;32.062;34.834;2023-07-02T05:47:10;6.22;;;3.47;;
75935;SDS011;64614;32.062;34.834;2023-07-02T05:49:36;5.32;;;3.08;;
75935;SDS011;64614;32.062;34.834;2023-07-02T05:52:01;6.05;;;3.47;;
75935;SDS011;64614;32.062;34.834;2023-07-02T05:54:31;6.72;;;3.38;;
75935;SDS011;64614;32.062;34.834;2023-07-02T05:57:06;5.82;;;3.10;;
75935;SDS011;64614;32.062;34.834;2023-07-02T05:59:31;5.68;;;3.42;;
75935;SDS011;64614;32.062;34.834;2023-07-02T06:02:03;5.53;;;3.30;;
75935;SDS011;64614;32.062;34.834;2023-07-02T06:04:31;4.97;;;3.03;;
75935;SDS011;64614;32.062;34.834;2023-07-02T06:06:57;5.53;;;3.30;;
75935;SDS011;64614;32.062;34.834;2023-07-02T06:09:27;4.75;;;2.95;;
75935;SDS011;64614;32.062;34.834;2023-07-02T06:11:56;6.80;;;3.42;;
75935;SDS011;64614;32.062;34.834;2023-07-02T06:14:21;5.75;;;3.30;;
75935;SDS011;64614;32.062;34.834;2023-07-02T06:19:17;5.28;;;3.05;;
75935;SDS011;64614;32.062;34.834;2023-07-02T06:21:46;6.40;;;3.60;;
75935;SDS011;64614;32.062;34.834;2023-07-02T06:26:40;5.50;;;3.40;;
75935;SDS011;64614;32.062;34.834;2023-07-02T06:29:06;5.22;;;3.20;;
75935;SDS011;64614;32.062;34.834;2023-07-02T06:31:31;6.15;;;3.35;;
75935;SDS011;64614;32.062;34.834;2023-07-02T06:34:05;6.45;;;3.58;;
75935;SDS011;64614;32.062;34.834;2023-07-02T06:36:33;6.18;;;3.13;;
75935;SDS011;64614;32.062;34.834;2023-07-02T06:38:59;5.85;;;3.45;;
75935;SDS011;64614;32.062;34.834;2023-07-02T06:41:25;5.82;;;3.38;;
75935;SDS011;64614;32.062;34.834;2023-07-02T06:43:57;5.78;;;3.58;;
75935;SDS011;64614;32.062;34.834;2023-07-02T06:46:23;5.97;;;3.35;;
75935;SDS011;64614;32.062;34.834;2023-07-02T06:48:48;6.80;;;3.78;;
75935;SDS011;64614;32.062;34.834;2023-07-02T06:51:17;5.82;;;3.15;;
75935;SDS011;64614;32.062;34.834;2023-07-02T06:53:44;5.60;;;3.28;;
75935;SDS011;64614;32.062;34.834;2023-07-02T06:56:12;6.45;;;3.70;;
75935;SDS011;64614;32.062;34.834;2023-07-02T06:58:44;6.30;;;3.80;;
75935;SDS011;64614;32.062;34.834;2023-07-02T07:01:10;6.28;;;3.75;;
75935;SDS011;64614;32.062;34.834;2023-07-02T07:03:36;6.53;;;3.60;;
75935;SDS011;64614;32.062;34.834;2023-07-02T07:06:02;6.20;;;3.45;;
75935;SDS011;64614;32.062;34.834;2023-07-02T07:08:28;6.20;;;3.25;;
75935;SDS011;64614;32.062;34.834;2023-07-02T07:10:54;6.80;;;3.88;;
75935;SDS011;64614;32.062;34.834;2023-07-02T07:13:20;6.47;;;3.70;;
75935;SDS011;64614;32.062;34.834;2023-07-02T07:15:46;6.63;;;3.90;;
75935;SDS011;64614;32.062;34.834;2023-07-02T07:18:12;5.90;;;3.60;;
75935;SDS011;64614;32.062;34.834;2023-07-02T07:20:41;6.43;;;3.80;;
75935;SDS011;64614;32.062;34.834;2023-07-02T07:23:07;6.10;;;4.03;;
75935;SDS011;64614;32.062;34.834;2023-07-02T07:25:32;6.35;;;3.60;;
75935;SDS011;64614;32.062;34.834;2023-07-02T07:28:01;5.88;;;3.60;;
75935;SDS011;64614;32.062;34.834;2023-07-02T07:30:27;5.85;;;3.38;;
75935;SDS011;64614;32.062;34.834;2023-07-02T07:32:53;7.05;;;4.00;;
75935;SDS011;64614;32.062;34.834;2023-07-02T07:35:22;6.13;;;3.67;;
75935;SDS011;64614;32.062;34.834;2023-07-02T07:37:48;7.22;;;3.75;;
75935;SDS011;64614;32.062;34.834;2023-07-02T07:40:14;5.78;;;3.42;;
75935;SDS011;64614;32.062;34.834;2023-07-02T07:42:45;6.72;;;3.53;;
75935;SDS011;64614;32.062;34.834;2023-07-02T07:45:48;6.03;;;3.63;;
75935;SDS011;64614;32.062;34.834;2023-07-02T07:50:45;5.72;;;3.85;;
75935;SDS011;64614;32.062;34.834;2023-07-02T07:53:16;5.68;;;3.63;;
75935;SDS011;64614;32.062;34.834;2023-07-02T07:55:53;6.50;;;3.75;;
75935;SDS011;64614;32.062;34.834;2023-07-02T07:58:23;5.45;;;3.22;;
75935;SDS011;64614;32.062;34.834;2023-07-02T08:01:06;5.75;;;3.30;;
75935;SDS011;64614;32.062;34.834;2023-07-02T08:03:46;6.22;;;3.83;;
75935;SDS011;64614;32.062;34.834;2023-07-02T08:11:27;6.35;;;3.75;;
75935;SDS011;64614;32.062;34.834;2023-07-02T08:14:03;6.22;;;3.70;;
75935;SDS011;64614;32.062;34.834;2023-07-02T08:16:50;6.22;;;3.75;;
75935;SDS011;64614;32.062;34.834;2023-07-02T08:19:22;6.38;;;3.58;;
75935;SDS011;64614;32.062;34.834;2023-07-02T08:21:50;5.35;;;3.42;;
75935;SDS011;64614;32.062;34.834;2023-07-02T08:24:21;5.65;;;3.65;;
75935;SDS011;64614;32.062;34.834;2023-07-02T08:26:47;6.10;;;3.40;;
75935;SDS011;64614;32.062;34.834;2023-07-02T08:31:44;5.15;;;3.20;;
75935;SDS011;64614;32.062;34.834;2023-07-02T08:34:16;5.88;;;3.78;;
75935;SDS011;64614;32.062;34.834;2023-07-02T08:36:42;6.60;;;3.65;;
75935;SDS011;64614;32.062;34.834;2023-07-02T08:39:08;5.65;;;3.25;;
75935;SDS011;64614;32.062;34.834;2023-07-02T08:41:44;6.00;;;3.63;;
75935;SDS011;64614;32.062;34.834;2023-07-02T08:44:11;5.60;;;3.42;;
75935;SDS011;64614;32.062;34.834;2023-07-02T08:46:43;5.35;;;3.33;;
75935;SDS011;64614;32.062;34.834;2023-07-02T08:49:15;6.38;;;3.80;;
75935;SDS011;64614;32.062;34.834;2023-07-02T08:51:44;6.03;;;3.55;;
75935;SDS011;64614;32.062;34.834;2023-07-02T08:54:11;6.30;;;3.20;;
75935;SDS011;64614;32.062;34.834;2023-07-02T08:56:38;5.32;;;3.30;;
75935;SDS011;64614;32.062;34.834;2023-07-02T08:59:11;6.13;;;3.30;;
75935;SDS011;64614;32.062;34.834;2023-07-02T09:01:44;5.43;;;3.40;;
75935;SDS011;64614;32.062;34.834;2023-07-02T09:04:23;5.45;;;3.33;;
75935;SDS011;64614;32.062;34.834;2023-07-02T09:07:06;6.03;;;3.13;;
75935;SDS011;64614;32.062;34.834;2023-07-02T09:09:46;5.45;;;2.95;;
75935;SDS011;64614;32.062;34.834;2023-07-02T09:12:29;6.53;;;3.83;;
75935;SDS011;64614;32.062;34.834;2023-07-02T09:15:04;6.32;;;3.53;;
75935;SDS011;64614;32.062;34.834;2023-07-02T09:17:36;5.72;;;3.20;;
75935;SDS011;64614;32.062;34.834;2023-07-02T09:20:03;5.25;;;3.28;;
75935;SDS011;64614;32.062;34.834;2023-07-02T09:22:33;5.75;;;3.10;;
75935;SDS011;64614;32.062;34.834;2023-07-02T09:25:02;5.60;;;3.40;;
75935;SDS011;64614;32.062;34.834;2023-07-02T09:27:38;5.65;;;3.13;;
75935;SDS011;64614;32.062;34.834;2023-07-02T09:30:14;6.53;;;3.20;;
75935;SDS011;64614;32.062;34.834;2023-07-02T09:32:50;5.50;;;3.20;;
75935;SDS011;64614;32.062;34.834;2023-07-02T09:35:17;5.10;;;3.20;;
75935;SDS011;64614;32.062;34.834;2023-07-02T09:37:43;5.03;;;3.05;;
75935;SDS011;64614;32.062;34.834;2023-07-02T09:40:10;5.38;;;3.17;;
75935;SDS011;64614;32.062;34.834;2023-07-02T09:42:36;5.43;;;3.03;;
75935;SDS011;64614;32.062;34.834;2023-07-02T09:45:04;5.38;;;3.13;;
75935;SDS011;64614;32.062;34.834;2023-07-02T09:47:34;5.40;;;3.10;;
75935;SDS011;64614;32.062;34.834;2023-07-02T09:50:05;5.28;;;2.75;;
75935;SDS011;64614;32.062;34.834;2023-07-02T09:52:32;6.40;;;3.05;;
75935;SDS011;64614;32.062;34.834;2023-07-02T09:55:05;5.50;;;3.33;;
75935;SDS011;64614;32.062;34.834;2023-07-02T09:57:32;5.05;;;3.13;;
75935;SDS011;64614;32.062;34.834;2023-07-02T10:00:02;5.00;;;2.95;;
75935;SDS011;64614;32.062;34.834;2023-07-02T10:02:29;5.72;;;2.92;;
75935;SDS011;64614;32.062;34.834;2023-07-02T10:05:04;5.25;;;3.35;;
75935;SDS011;64614;32.062;34.834;2023-07-02T10:07:32;4.25;;;2.65;;
75935;SDS011;64614;32.062;34.834;2023-07-02T10:09:58;4.85;;;2.92;;
75935;SDS011;64614;32.062;34.834;2023-07-02T10:12:25;4.80;;;2.90;;
75935;SDS011;64614;32.062;34.834;2023-07-02T10:14:59;4.88;;;2.97;;
75935;SDS011;64614;32.062;34.834;2023-07-02T10:17:33;5.18;;;3.13;;
75935;SDS011;64614;32.062;34.834;2023-07-02T10:20:02;4.93;;;2.97;;
75935;SDS011;64614;32.062;34.834;2023-07-02T10:22:43;5.57;;;3.30;;
75935;SDS011;64614;32.062;34.834;2023-07-02T10:25:24;5.35;;;3.00;;
75935;SDS011;64614;32.062;34.834;2023-07-02T10:27:51;4.53;;;2.75;;
75935;SDS011;64614;32.062;34.834;2023-07-02T10:30:17;4.78;;;2.75;;
75935;SDS011;64614;32.062;34.834;2023-07-02T10:32:45;4.53;;;2.90;;
75935;SDS011;64614;32.062;34.834;2023-07-02T10:35:14;4.82;;;2.90;;
75935;SDS011;64614;32.062;34.834;2023-07-02T10:37:41;4.68;;;2.83;;
75935;SDS011;64614;32.062;34.834;2023-07-02T10:40:07;4.93;;;2.90;;
75935;SDS011;64614;32.062;34.834;2023-07-02T10:45:36;4.88;;;2.88;;
75935;SDS011;64614;32.062;34.834;2023-07-02T10:48:10;4.85;;;2.90;;
75935;SDS011;64614;32.062;34.834;2023-07-02T10:50:56;4.88;;;2.90;;
75935;SDS011;64614;32.062;34.834;2023-07-02T10:53:23;5.18;;;2.72;;
75935;SDS011;64614;32.062;34.834;2023-07-02T10:55:59;4.35;;;2.60;;
75935;SDS011;64614;32.062;34.834;2023-07-02T10:58:31;3.88;;;2.67;;
75935;SDS011;64614;32.062;34.834;2023-07-02T11:01:35;4.43;;;2.70;;
75935;SDS011;64614;32.062;34.834;2023-07-02T11:04:01;4.57;;;2.90;;
75935;SDS011;64614;32.062;34.834;2023-07-02T11:06:32;4.10;;;2.63;;
75935;SDS011;64614;32.062;34.834;2023-07-02T11:09:14;4.68;;;2.78;;
75935;SDS011;64614;32.062;34.834;2023-07-02T11:11:49;4.45;;;2.80;;
75935;SDS011;64614;32.062;34.834;2023-07-02T11:16:57;4.40;;;2.72;;
75935;SDS011;64614;32.062;34.834;2023-07-02T11:19:24;4.57;;;2.70;;
75935;SDS011;64614;32.062;34.834;2023-07-02T11:21:55;4.28;;;2.60;;
75935;SDS011;64614;32.062;34.834;2023-07-02T11:24:36;4.30;;;2.55;;
75935;SDS011;64614;32.062;34.834;2023-07-02T11:27:04;4.22;;;2.60;;
75935;SDS011;64614;32.062;34.834;2023-07-02T11:29:37;4.60;;;2.80;;
75935;SDS011;64614;32.062;34.834;2023-07-02T11:32:12;4.63;;;2.90;;
75935;SDS011;64614;32.062;34.834;2023-07-02T11:34:40;4.25;;;2.60;;
75935;SDS011;64614;32.062;34.834;2023-07-02T11:37:06;4.28;;;2.63;;
75935;SDS011;64614;32.062;34.834;2023-07-02T11:39:32;4.82;;;2.80;;
75935;SDS011;64614;32.062;34.834;2023-07-02T11:41:58;4.32;;;2.63;;
75935;SDS011;64614;32.062;34.834;2023-07-02T11:44:46;3.72;;;2.60;;
75935;SDS011;64614;32.062;34.834;2023-07-02T11:47:15;4.28;;;2.65;;
75935;SDS011;64614;32.062;34.834;2023-07-02T11:49:49;4.95;;;3.20;;
75935;SDS011;64614;32.062;34.834;2023-07-02T11:52:18;4.03;;;2.42;;
75935;SDS011;64614;32.062;34.834;2023-07-02T11:54:44;4.18;;;2.60;;
75935;SDS011;64614;32.062;34.834;2023-07-02T11:57:10;3.95;;;2.53;;
75935;SDS011;64614;32.062;34.834;2023-07-02T11:59:35;3.15;;;2.20;;
75935;SDS011;64614;32.062;34.834;2023-07-02T12:02:04;4.70;;;2.80;;
75935;SDS011;64614;32.062;34.834;2023-07-02T12:04:30;3.55;;;2.40;;
75935;SDS011;64614;32.062;34.834;2023-07-02T12:06:56;4.35;;;2.50;;
75935;SDS011;64614;32.062;34.834;2023-07-02T12:09:22;4.43;;;2.58;;
75935;SDS011;64614;32.062;34.834;2023-07-02T12:11:48;3.83;;;2.42;;
75935;SDS011;64614;32.062;34.834;2023-07-02T12:14:16;4.32;;;2.58;;
75935;SDS011;64614;32.062;34.834;2023-07-02T12:16:42;3.83;;;2.65;;
75935;SDS011;64614;32.062;34.834;2023-07-02T12:19:10;3.83;;;2.60;;
75935;SDS011;64614;32.062;34.834;2023-07-02T12:21:36;4.05;;;2.42;;
75935;SDS011;64614;32.062;34.834;2023-07-02T12:24:04;4.35;;;2.58;;
75935;SDS011;64614;32.062;34.834;2023-07-02T12:26:34;4.13;;;2.80;;
75935;SDS011;64614;32.062;34.834;2023-07-02T12:29:01;4.45;;;2.70;;
75935;SDS011;64614;32.062;34.834;2023-07-02T12:31:29;4.75;;;2.70;;
75935;SDS011;64614;32.062;34.834;2023-07-02T12:33:58;4.10;;;2.72;;
75935;SDS011;64614;32.062;34.834;2023-07-02T12:36:24;4.22;;;2.80;;
75935;SDS011;64614;32.062;34.834;2023-07-02T12:38:50;4.72;;;2.75;;
75935;SDS011;64614;32.062;34.834;2023-07-02T12:41:16;3.95;;;2.83;;
75935;SDS011;64614;32.062;34.834;2023-07-02T12:43:44;4.90;;;2.90;;
75935;SDS011;64614;32.062;34.834;2023-07-02T12:46:10;4.72;;;2.70;;
75935;SDS011;64614;32.062;34.834;2023-07-02T12:48:38;4.28;;;2.80;;
75935;SDS011;64614;32.062;34.834;2023-07-02T12:51:04;3.92;;;2.75;;
75935;SDS011;64614;32.062;34.834;2023-07-02T12:53:32;4.47;;;2.70;;
75935;SDS011;64614;32.062;34.834;2023-07-02T12:56:10;4.63;;;2.85;;
75935;SDS011;64614;32.062;34.834;2023-07-02T12:58:35;4.45;;;2.60;;
75935;SDS011;64614;32.062;34.834;2023-07-02T13:01:01;4.65;;;2.75;;
75935;SDS011;64614;32.062;34.834;2023-07-02T13:03:29;4.55;;;2.70;;
75935;SDS011;64614;32.062;34.834;2023-07-02T13:05:59;4.30;;;2.80;;
75935;SDS011;64614;32.062;34.834;2023-07-02T13:08:29;3.92;;;2.63;;
75935;SDS011;64614;32.062;34.834;2023-07-02T13:10:55;3.70;;;2.40;;
75935;SDS011;64614;32.062;34.834;2023-07-02T13:13:26;4.10;;;2.42;;
75935;SDS011;64614;32.062;34.834;2023-07-02T13:15:57;4.47;;;2.45;;
75935;SDS011;64614;32.062;34.834;2023-07-02T13:18:24;4.30;;;2.65;;
75935;SDS011;64614;32.062;34.834;2023-07-02T13:20:50;4.13;;;2.60;;
75935;SDS011;64614;32.062;34.834;2023-07-02T13:23:16;4.10;;;2.55;;
75935;SDS011;64614;32.062;34.834;2023-07-02T13:25:41;4.32;;;2.42;;
75935;SDS011;64614;32.062;34.834;2023-07-02T13:28:07;4.85;;;2.60;;
75935;SDS011;64614;32.062;34.834;2023-07-02T13:30:35;3.00;;;2.17;;
75935;SDS011;64614;32.062;34.834;2023-07-02T13:33:01;4.03;;;2.53;;
75935;SDS011;64614;32.062;34.834;2023-07-02T13:35:27;4.25;;;2.58;;
75935;SDS011;64614;32.062;34.834;2023-07-02T13:37:56;4.03;;;2.70;;
75935;SDS011;64614;32.062;34.834;2023-07-02T13:40:24;3.60;;;2.30;;
75935;SDS011;64614;32.062;34.834;2023-07-02T13:42:50;4.75;;;2.83;;
75935;SDS011;64614;32.062;34.834;2023-07-02T13:45:22;3.85;;;2.40;;
75935;SDS011;64614;32.062;34.834;2023-07-02T13:47:50;4.18;;;2.50;;
75935;SDS011;64614;32.062;34.834;2023-07-02T13:50:16;3.45;;;2.40;;
75935;SDS011;64614;32.062;34.834;2023-07-02T13:52:42;3.90;;;2.67;;
75935;SDS011;64614;32.062;34.834;2023-07-02T13:55:08;3.58;;;2.42;;
75935;SDS011;64614;32.062;34.834;2023-07-02T13:57:34;3.42;;;2.25;;
75935;SDS011;64614;32.062;34.834;2023-07-02T13:59:59;4.13;;;2.50;;
75935;SDS011;64614;32.062;34.834;2023-07-02T14:02:25;4.25;;;2.40;;
75935;SDS011;64614;32.062;34.834;2023-07-02T14:04:51;4.43;;;2.67;;
75935;SDS011;64614;32.062;34.834;2023-07-02T14:07:17;4.30;;;2.50;;
75935;SDS011;64614;32.062;34.834;2023-07-02T14:09:42;4.70;;;2.80;;
75935;SDS011;64614;32.062;34.834;2023-07-02T14:12:11;3.72;;;2.35;;
75935;SDS011;64614;32.062;34.834;2023-07-02T14:14:40;3.75;;;2.38;;
75935;SDS011;64614;32.062;34.834;2023-07-02T14:17:06;4.18;;;2.75;;
75935;SDS011;64614;32.062;34.834;2023-07-02T14:19:32;4.10;;;2.55;;
75935;SDS011;64614;32.062;34.834;2023-07-02T14:22:04;3.47;;;2.33;;
75935;SDS011;64614;32.062;34.834;2023-07-02T14:24:42;3.80;;;2.63;;
75935;SDS011;64614;32.062;34.834;2023-07-02T14:27:13;3.63;;;2.40;;
75935;SDS011;64614;32.062;34.834;2023-07-02T14:29:38;4.32;;;2.70;;
75935;SDS011;64614;32.062;34.834;2023-07-02T14:32:04;3.85;;;2.60;;
75935;SDS011;64614;32.062;34.834;2023-07-02T14:34:36;3.38;;;2.30;;
75935;SDS011;64614;32.062;34.834;2023-07-02T14:37:07;4.10;;;2.80;;
75935;SDS011;64614;32.062;34.834;2023-07-02T14:39:33;4.35;;;2.50;;
75935;SDS011;64614;32.062;34.834;2023-07-02T14:41:59;5.18;;;2.63;;
75935;SDS011;64614;32.062;34.834;2023-07-02T14:44:25;10.18;;;3.90;;
75935;SDS011;64614;32.062;34.834;2023-07-02T14:46:51;6.53;;;3.53;;
75935;SDS011;64614;32.062;34.834;2023-07-02T14:49:17;9.55;;;4.10;;
75935;SDS011;64614;32.062;34.834;2023-07-02T14:51:43;9.38;;;4.00;;
75935;SDS011;64614;32.062;34.834;2023-07-02T14:54:09;8.88;;;4.07;;
75935;SDS011;64614;32.062;34.834;2023-07-02T14:56:35;6.55;;;3.45;;
75935;SDS011;64614;32.062;34.834;2023-07-02T14:59:02;6.22;;;3.67;;
75935;SDS011;64614;32.062;34.834;2023-07-02T15:01:29;7.20;;;3.80;;
75935;SDS011;64614;32.062;34.834;2023-07-02T15:03:55;7.25;;;3.70;;
75935;SDS011;64614;32.062;34.834;2023-07-02T15:06:21;5.30;;;3.30;;
75935;SDS011;64614;32.062;34.834;2023-07-02T15:08:47;5.47;;;3.38;;
75935;SDS011;64614;32.062;34.834;2023-07-02T15:11:13;6.60;;;3.80;;
75935;SDS011;64614;32.062;34.834;2023-07-02T15:13:40;5.50;;;3.13;;